雲待ちでイライラの日。

そもそも天気予報があたらない。節操がなく予報が変わるし。
天気予報では予報のあたる確率も教えて欲しいものだ。
昨日の予報では回復基調にあった月曜も雨の予報に・・・で尾瀬はキャンセル。

6594a5f9.jpg
26431322.jpg

羽田から15マイル離れた西の空と南東の空。午後4時頃

今日0時発表のL-TAF。L-TAFは発表後9時間後から18時間の予報を表す。

10/08 00:00 RJTT 071500Z 080018 19015KT 9999 FEW030 TEMPO 0209
19018G28KT BECMG 1416 03010KT 4000-RA BR BKN008 BKN020=

そんなもんかね?